sensor_id;sensor_type;location;lat;lon;timestamp;P1;durP1;ratioP1;P2;durP2;ratioP2
35294;SDS011;21413;48.032;7.764;2022-08-19T00:01:14;31.30;;;21.07;;
35294;SDS011;21413;48.032;7.764;2022-08-19T00:03:40;31.50;;;22.50;;
35294;SDS011;21413;48.032;7.764;2022-08-19T00:06:06;21.50;;;19.30;;
35294;SDS011;21413;48.032;7.764;2022-08-19T00:08:32;19.77;;;17.80;;
35294;SDS011;21413;48.032;7.764;2022-08-19T00:10:59;23.20;;;20.73;;
35294;SDS011;21413;48.032;7.764;2022-08-19T00:13:25;23.17;;;19.63;;
35294;SDS011;21413;48.032;7.764;2022-08-19T00:15:53;22.07;;;19.60;;
35294;SDS011;21413;48.032;7.764;2022-08-19T00:18:19;25.00;;;19.50;;
35294;SDS011;21413;48.032;7.764;2022-08-19T00:20:45;22.87;;;20.57;;
35294;SDS011;21413;48.032;7.764;2022-08-19T00:23:11;24.00;;;19.50;;
35294;SDS011;21413;48.032;7.764;2022-08-19T00:25:37;23.27;;;20.93;;
35294;SDS011;21413;48.032;7.764;2022-08-19T00:28:04;23.17;;;20.80;;
35294;SDS011;21413;48.032;7.764;2022-08-19T00:30:30;23.27;;;21.00;;
35294;SDS011;21413;48.032;7.764;2022-08-19T00:32:56;24.27;;;21.73;;
35294;SDS011;21413;48.032;7.764;2022-08-19T00:35:23;26.47;;;23.23;;
35294;SDS011;21413;48.032;7.764;2022-08-19T00:37:49;25.83;;;22.83;;
35294;SDS011;21413;48.032;7.764;2022-08-19T00:40:16;28.10;;;23.67;;
35294;SDS011;21413;48.032;7.764;2022-08-19T00:42:43;27.80;;;21.80;;
35294;SDS011;21413;48.032;7.764;2022-08-19T00:45:14;27.57;;;22.40;;
35294;SDS011;21413;48.032;7.764;2022-08-19T00:47:42;23.13;;;20.70;;
35294;SDS011;21413;48.032;7.764;2022-08-19T00:50:08;23.23;;;20.83;;
35294;SDS011;21413;48.032;7.764;2022-08-19T00:52:37;24.40;;;21.37;;
35294;SDS011;21413;48.032;7.764;2022-08-19T00:55:05;22.93;;;20.47;;
35294;SDS011;21413;48.032;7.764;2022-08-19T00:57:36;21.60;;;19.53;;
35294;SDS011;21413;48.032;7.764;2022-08-19T01:00:04;20.77;;;18.77;;
35294;SDS011;21413;48.032;7.764;2022-08-19T01:02:31;19.50;;;17.63;;
35294;SDS011;21413;48.032;7.764;2022-08-19T01:04:59;21.17;;;19.03;;
35294;SDS011;21413;48.032;7.764;2022-08-19T01:07:26;20.48;;;18.48;;
35294;SDS011;21413;48.032;7.764;2022-08-19T01:09:51;24.37;;;20.53;;
35294;SDS011;21413;48.032;7.764;2022-08-19T01:12:18;24.03;;;21.43;;
35294;SDS011;21413;48.032;7.764;2022-08-19T01:14:44;23.40;;;21.13;;
35294;SDS011;21413;48.032;7.764;2022-08-19T01:17:11;30.87;;;20.73;;
35294;SDS011;21413;48.032;7.764;2022-08-19T01:19:39;27.97;;;22.80;;
35294;SDS011;21413;48.032;7.764;2022-08-19T01:24:34;31.73;;;23.90;;
35294;SDS011;21413;48.032;7.764;2022-08-19T01:27:03;32.70;;;25.00;;
35294;SDS011;21413;48.032;7.764;2022-08-19T01:29:29;27.70;;;23.63;;
35294;SDS011;21413;48.032;7.764;2022-08-19T01:31:55;31.20;;;27.80;;
35294;SDS011;21413;48.032;7.764;2022-08-19T01:34:21;36.70;;;29.50;;
35294;SDS011;21413;48.032;7.764;2022-08-19T01:36:48;28.63;;;25.50;;
35294;SDS011;21413;48.032;7.764;2022-08-19T01:39:15;31.80;;;26.70;;
35294;SDS011;21413;48.032;7.764;2022-08-19T01:41:42;31.33;;;25.50;;
35294;SDS011;21413;48.032;7.764;2022-08-19T01:44:08;31.47;;;28.17;;
35294;SDS011;21413;48.032;7.764;2022-08-19T01:46:35;36.80;;;30.90;;
35294;SDS011;21413;48.032;7.764;2022-08-19T01:49:01;36.77;;;30.47;;
35294;SDS011;21413;48.032;7.764;2022-08-19T01:51:28;43.73;;;33.13;;
35294;SDS011;21413;48.032;7.764;2022-08-19T01:53:55;39.13;;;32.20;;
35294;SDS011;21413;48.032;7.764;2022-08-19T01:56:21;40.47;;;34.13;;
35294;SDS011;21413;48.032;7.764;2022-08-19T01:58:55;37.97;;;32.90;;
35294;SDS011;21413;48.032;7.764;2022-08-19T02:01:21;32.37;;;28.97;;
35294;SDS011;21413;48.032;7.764;2022-08-19T02:03:47;37.20;;;31.80;;
35294;SDS011;21413;48.032;7.764;2022-08-19T02:06:13;94.63;;;79.50;;
35294;SDS011;21413;48.032;7.764;2022-08-19T02:08:41;56.50;;;40.70;;
35294;SDS011;21413;48.032;7.764;2022-08-19T02:11:17;43.27;;;36.20;;
35294;SDS011;21413;48.032;7.764;2022-08-19T02:13:43;44.23;;;34.40;;
35294;SDS011;21413;48.032;7.764;2022-08-19T02:16:09;46.03;;;33.60;;
35294;SDS011;21413;48.032;7.764;2022-08-19T02:18:35;40.47;;;32.90;;
35294;SDS011;21413;48.032;7.764;2022-08-19T02:21:01;46.10;;;32.00;;
35294;SDS011;21413;48.032;7.764;2022-08-19T02:23:27;37.07;;;31.30;;
35294;SDS011;21413;48.032;7.764;2022-08-19T02:25:53;38.37;;;31.30;;
35294;SDS011;21413;48.032;7.764;2022-08-19T02:28:19;35.07;;;30.17;;
35294;SDS011;21413;48.032;7.764;2022-08-19T02:30:45;35.80;;;29.97;;
35294;SDS011;21413;48.032;7.764;2022-08-19T02:33:12;41.23;;;31.40;;
35294;SDS011;21413;48.032;7.764;2022-08-19T02:35:40;36.30;;;30.20;;
35294;SDS011;21413;48.032;7.764;2022-08-19T02:38:06;31.43;;;28.03;;
35294;SDS011;21413;48.032;7.764;2022-08-19T02:40:52;32.40;;;28.90;;
35294;SDS011;21413;48.032;7.764;2022-08-19T02:43:18;33.27;;;29.20;;
35294;SDS011;21413;48.032;7.764;2022-08-19T02:45:48;40.57;;;35.37;;
35294;SDS011;21413;48.032;7.764;2022-08-19T02:48:15;35.13;;;31.23;;
35294;SDS011;21413;48.032;7.764;2022-08-19T02:50:42;40.23;;;28.47;;
35294;SDS011;21413;48.032;7.764;2022-08-19T02:53:08;32.83;;;29.40;;
35294;SDS011;21413;48.032;7.764;2022-08-19T02:55:34;45.47;;;29.90;;
35294;SDS011;21413;48.032;7.764;2022-08-19T02:58:00;33.90;;;29.83;;
35294;SDS011;21413;48.032;7.764;2022-08-19T03:00:26;32.50;;;27.90;;
35294;SDS011;21413;48.032;7.764;2022-08-19T03:02:53;26.50;;;23.77;;
35294;SDS011;21413;48.032;7.764;2022-08-19T03:05:19;26.27;;;23.60;;
35294;SDS011;21413;48.032;7.764;2022-08-19T03:07:45;27.77;;;24.97;;
35294;SDS011;21413;48.032;7.764;2022-08-19T03:10:11;32.50;;;26.03;;
35294;SDS011;21413;48.032;7.764;2022-08-19T03:12:38;33.30;;;27.10;;
35294;SDS011;21413;48.032;7.764;2022-08-19T03:15:05;31.03;;;25.30;;
35294;SDS011;21413;48.032;7.764;2022-08-19T03:17:32;29.70;;;24.73;;
35294;SDS011;21413;48.032;7.764;2022-08-19T03:19:58;36.90;;;28.70;;
35294;SDS011;21413;48.032;7.764;2022-08-19T03:22:24;39.80;;;27.47;;
35294;SDS011;21413;48.032;7.764;2022-08-19T03:24:50;35.00;;;27.90;;
35294;SDS011;21413;48.032;7.764;2022-08-19T03:27:16;40.47;;;27.53;;
35294;SDS011;21413;48.032;7.764;2022-08-19T03:29:42;31.50;;;27.33;;
35294;SDS011;21413;48.032;7.764;2022-08-19T03:32:08;30.80;;;27.30;;
35294;SDS011;21413;48.032;7.764;2022-08-19T03:34:36;33.80;;;27.33;;
35294;SDS011;21413;48.032;7.764;2022-08-19T03:37:04;32.70;;;24.57;;
35294;SDS011;21413;48.032;7.764;2022-08-19T03:39:30;32.77;;;26.27;;
35294;SDS011;21413;48.032;7.764;2022-08-19T03:41:56;25.97;;;23.47;;
35294;SDS011;21413;48.032;7.764;2022-08-19T03:44:24;26.30;;;23.70;;
35294;SDS011;21413;48.032;7.764;2022-08-19T03:46:55;27.97;;;24.20;;
35294;SDS011;21413;48.032;7.764;2022-08-19T03:49:23;29.03;;;24.80;;
35294;SDS011;21413;48.032;7.764;2022-08-19T03:51:49;31.67;;;26.57;;
35294;SDS011;21413;48.032;7.764;2022-08-19T03:54:16;26.30;;;23.77;;
35294;SDS011;21413;48.032;7.764;2022-08-19T03:56:43;24.47;;;22.07;;
35294;SDS011;21413;48.032;7.764;2022-08-19T03:59:11;28.03;;;25.03;;
35294;SDS011;21413;48.032;7.764;2022-08-19T04:01:38;31.90;;;26.17;;
35294;SDS011;21413;48.032;7.764;2022-08-19T04:04:04;32.80;;;24.93;;
35294;SDS011;21413;48.032;7.764;2022-08-19T04:06:35;24.73;;;22.30;;
35294;SDS011;21413;48.032;7.764;2022-08-19T04:09:03;26.67;;;23.87;;
35294;SDS011;21413;48.032;7.764;2022-08-19T04:11:51;24.90;;;22.37;;
35294;SDS011;21413;48.032;7.764;2022-08-19T04:14:19;27.80;;;25.20;;
35294;SDS011;21413;48.032;7.764;2022-08-19T04:16:46;27.20;;;24.50;;
35294;SDS011;21413;48.032;7.764;2022-08-19T04:19:13;29.33;;;23.60;;
35294;SDS011;21413;48.032;7.764;2022-08-19T04:21:39;27.70;;;24.90;;
35294;SDS011;21413;48.032;7.764;2022-08-19T04:24:06;30.03;;;23.13;;
35294;SDS011;21413;48.032;7.764;2022-08-19T04:26:33;27.30;;;24.40;;
35294;SDS011;21413;48.032;7.764;2022-08-19T04:29:01;23.80;;;21.37;;
35294;SDS011;21413;48.032;7.764;2022-08-19T04:31:28;27.93;;;22.93;;
35294;SDS011;21413;48.032;7.764;2022-08-19T04:33:55;24.23;;;21.17;;
35294;SDS011;21413;48.032;7.764;2022-08-19T04:36:23;25.80;;;19.67;;
35294;SDS011;21413;48.032;7.764;2022-08-19T04:38:49;22.90;;;20.53;;
35294;SDS011;21413;48.032;7.764;2022-08-19T04:41:16;26.53;;;23.83;;
35294;SDS011;21413;48.032;7.764;2022-08-19T04:44:00;58.20;;;52.10;;
35294;SDS011;21413;48.032;7.764;2022-08-19T04:46:27;26.47;;;23.77;;
35294;SDS011;21413;48.032;7.764;2022-08-19T04:48:55;31.10;;;23.83;;
35294;SDS011;21413;48.032;7.764;2022-08-19T04:51:21;30.10;;;25.83;;
35294;SDS011;21413;48.032;7.764;2022-08-19T04:53:48;28.77;;;25.77;;
35294;SDS011;21413;48.032;7.764;2022-08-19T04:56:14;27.67;;;24.37;;
35294;SDS011;21413;48.032;7.764;2022-08-19T04:58:42;24.97;;;22.67;;
35294;SDS011;21413;48.032;7.764;2022-08-19T05:01:09;42.10;;;27.30;;
35294;SDS011;21413;48.032;7.764;2022-08-19T05:03:36;48.10;;;26.47;;
35294;SDS011;21413;48.032;7.764;2022-08-19T05:06:08;28.57;;;25.50;;
35294;SDS011;21413;48.032;7.764;2022-08-19T05:08:35;34.80;;;26.47;;
35294;SDS011;21413;48.032;7.764;2022-08-19T05:11:07;32.87;;;25.13;;
35294;SDS011;21413;48.032;7.764;2022-08-19T05:13:33;29.23;;;26.20;;
35294;SDS011;21413;48.032;7.764;2022-08-19T05:16:00;29.50;;;26.00;;
35294;SDS011;21413;48.032;7.764;2022-08-19T05:18:26;31.30;;;26.50;;
35294;SDS011;21413;48.032;7.764;2022-08-19T05:21:12;28.77;;;25.67;;
35294;SDS011;21413;48.032;7.764;2022-08-19T05:23:58;32.50;;;28.57;;
35294;SDS011;21413;48.032;7.764;2022-08-19T05:26:24;29.77;;;25.03;;
35294;SDS011;21413;48.032;7.764;2022-08-19T05:28:53;30.33;;;25.40;;
35294;SDS011;21413;48.032;7.764;2022-08-19T05:31:19;28.40;;;24.20;;
35294;SDS011;21413;48.032;7.764;2022-08-19T05:33:46;27.73;;;24.83;;
35294;SDS011;21413;48.032;7.764;2022-08-19T05:36:12;25.90;;;23.30;;
35294;SDS011;21413;48.032;7.764;2022-08-19T05:38:39;22.93;;;20.83;;
35294;SDS011;21413;48.032;7.764;2022-08-19T05:41:12;26.70;;;22.77;;
35294;SDS011;21413;48.032;7.764;2022-08-19T05:43:38;20.87;;;18.87;;
35294;SDS011;21413;48.032;7.764;2022-08-19T05:46:06;22.70;;;20.60;;
35294;SDS011;21413;48.032;7.764;2022-08-19T05:48:33;24.77;;;22.50;;
35294;SDS011;21413;48.032;7.764;2022-08-19T05:51:03;23.53;;;21.20;;
35294;SDS011;21413;48.032;7.764;2022-08-19T05:53:31;24.50;;;21.83;;
35294;SDS011;21413;48.032;7.764;2022-08-19T05:55:57;28.10;;;21.53;;
35294;SDS011;21413;48.032;7.764;2022-08-19T05:58:23;23.03;;;20.87;;
35294;SDS011;21413;48.032;7.764;2022-08-19T06:00:49;27.20;;;21.87;;
35294;SDS011;21413;48.032;7.764;2022-08-19T06:03:17;23.77;;;21.27;;
35294;SDS011;21413;48.032;7.764;2022-08-19T06:05:43;25.40;;;22.80;;
35294;SDS011;21413;48.032;7.764;2022-08-19T06:08:09;23.30;;;20.97;;
35294;SDS011;21413;48.032;7.764;2022-08-19T06:10:35;26.83;;;20.47;;
35294;SDS011;21413;48.032;7.764;2022-08-19T06:13:01;22.87;;;20.73;;
35294;SDS011;21413;48.032;7.764;2022-08-19T06:15:27;25.80;;;22.20;;
35294;SDS011;21413;48.032;7.764;2022-08-19T06:17:54;24.93;;;21.97;;
35294;SDS011;21413;48.032;7.764;2022-08-19T06:20:20;26.23;;;22.23;;
35294;SDS011;21413;48.032;7.764;2022-08-19T06:22:47;24.50;;;21.90;;
35294;SDS011;21413;48.032;7.764;2022-08-19T06:25:16;25.23;;;21.80;;
35294;SDS011;21413;48.032;7.764;2022-08-19T06:27:43;23.00;;;20.67;;
35294;SDS011;21413;48.032;7.764;2022-08-19T06:30:09;27.63;;;22.83;;
35294;SDS011;21413;48.032;7.764;2022-08-19T06:32:36;22.17;;;20.07;;
35294;SDS011;21413;48.032;7.764;2022-08-19T06:35:02;22.23;;;20.03;;
35294;SDS011;21413;48.032;7.764;2022-08-19T06:37:29;22.83;;;20.63;;
35294;SDS011;21413;48.032;7.764;2022-08-19T06:39:55;27.10;;;21.40;;
35294;SDS011;21413;48.032;7.764;2022-08-19T06:42:21;22.90;;;20.60;;
35294;SDS011;21413;48.032;7.764;2022-08-19T06:44:48;24.40;;;20.30;;
35294;SDS011;21413;48.032;7.764;2022-08-19T06:47:16;25.03;;;19.33;;
35294;SDS011;21413;48.032;7.764;2022-08-19T06:49:42;23.10;;;20.23;;
35294;SDS011;21413;48.032;7.764;2022-08-19T06:52:08;23.23;;;19.00;;
35294;SDS011;21413;48.032;7.764;2022-08-19T06:54:37;23.40;;;20.73;;
35294;SDS011;21413;48.032;7.764;2022-08-19T06:57:04;22.73;;;20.50;;
35294;SDS011;21413;48.032;7.764;2022-08-19T06:59:30;22.30;;;20.07;;
35294;SDS011;21413;48.032;7.764;2022-08-19T07:01:58;22.50;;;20.30;;
35294;SDS011;21413;48.032;7.764;2022-08-19T07:04:28;23.77;;;20.43;;
35294;SDS011;21413;48.032;7.764;2022-08-19T07:06:58;26.93;;;20.57;;
35294;SDS011;21413;48.032;7.764;2022-08-19T07:09:24;24.90;;;20.60;;
35294;SDS011;21413;48.032;7.764;2022-08-19T07:11:50;21.10;;;19.00;;
35294;SDS011;21413;48.032;7.764;2022-08-19T07:14:18;25.20;;;20.97;;
35294;SDS011;21413;48.032;7.764;2022-08-19T07:16:45;23.27;;;20.00;;
35294;SDS011;21413;48.032;7.764;2022-08-19T07:19:12;26.07;;;21.37;;
35294;SDS011;21413;48.032;7.764;2022-08-19T07:21:38;22.30;;;19.90;;
35294;SDS011;21413;48.032;7.764;2022-08-19T07:24:04;22.17;;;19.97;;
35294;SDS011;21413;48.032;7.764;2022-08-19T07:26:31;29.03;;;21.63;;
35294;SDS011;21413;48.032;7.764;2022-08-19T07:28:58;24.90;;;20.17;;
35294;SDS011;21413;48.032;7.764;2022-08-19T07:31:25;20.30;;;18.07;;
35294;SDS011;21413;48.032;7.764;2022-08-19T07:33:52;23.57;;;19.20;;
35294;SDS011;21413;48.032;7.764;2022-08-19T07:36:21;23.23;;;20.77;;
35294;SDS011;21413;48.032;7.764;2022-08-19T07:38:48;24.00;;;21.60;;
35294;SDS011;21413;48.032;7.764;2022-08-19T07:41:15;22.30;;;20.20;;
35294;SDS011;21413;48.032;7.764;2022-08-19T07:43:42;22.07;;;19.90;;
35294;SDS011;21413;48.032;7.764;2022-08-19T07:46:08;21.77;;;19.50;;
35294;SDS011;21413;48.032;7.764;2022-08-19T07:48:35;21.30;;;19.20;;
35294;SDS011;21413;48.032;7.764;2022-08-19T07:51:02;23.57;;;21.33;;
35294;SDS011;21413;48.032;7.764;2022-08-19T07:53:29;21.93;;;19.67;;
35294;SDS011;21413;48.032;7.764;2022-08-19T07:55:56;22.83;;;20.73;;
35294;SDS011;21413;48.032;7.764;2022-08-19T07:58:30;21.80;;;19.67;;
35294;SDS011;21413;48.032;7.764;2022-08-19T08:00:57;22.67;;;20.23;;
35294;SDS011;21413;48.032;7.764;2022-08-19T08:03:23;22.17;;;19.90;;
35294;SDS011;21413;48.032;7.764;2022-08-19T08:06:10;22.13;;;19.93;;
35294;SDS011;21413;48.032;7.764;2022-08-19T08:08:55;22.43;;;20.10;;
35294;SDS011;21413;48.032;7.764;2022-08-19T08:11:40;22.93;;;20.53;;
35294;SDS011;21413;48.032;7.764;2022-08-19T08:14:06;22.70;;;20.63;;
35294;SDS011;21413;48.032;7.764;2022-08-19T08:16:35;23.33;;;21.17;;
35294;SDS011;21413;48.032;7.764;2022-08-19T08:19:03;22.47;;;20.27;;
35294;SDS011;21413;48.032;7.764;2022-08-19T08:21:30;33.37;;;22.93;;
35294;SDS011;21413;48.032;7.764;2022-08-19T08:23:56;24.00;;;21.67;;
35294;SDS011;21413;48.032;7.764;2022-08-19T08:26:22;24.17;;;22.00;;
35294;SDS011;21413;48.032;7.764;2022-08-19T08:28:48;24.00;;;21.90;;
35294;SDS011;21413;48.032;7.764;2022-08-19T08:31:14;24.20;;;21.80;;
35294;SDS011;21413;48.032;7.764;2022-08-19T08:33:40;25.90;;;23.10;;
35294;SDS011;21413;48.032;7.764;2022-08-19T08:36:07;23.23;;;20.87;;
35294;SDS011;21413;48.032;7.764;2022-08-19T08:38:34;27.83;;;22.33;;
35294;SDS011;21413;48.032;7.764;2022-08-19T08:41:02;24.23;;;21.90;;
35294;SDS011;21413;48.032;7.764;2022-08-19T08:43:38;25.43;;;21.67;;
35294;SDS011;21413;48.032;7.764;2022-08-19T08:46:09;25.53;;;23.23;;
35294;SDS011;21413;48.032;7.764;2022-08-19T08:51:12;24.80;;;22.33;;
35294;SDS011;21413;48.032;7.764;2022-08-19T08:53:39;24.40;;;22.00;;
35294;SDS011;21413;48.032;7.764;2022-08-19T08:56:07;25.23;;;22.73;;
35294;SDS011;21413;48.032;7.764;2022-08-19T08:58:42;23.23;;;21.10;;
35294;SDS011;21413;48.032;7.764;2022-08-19T09:01:12;24.63;;;22.13;;
35294;SDS011;21413;48.032;7.764;2022-08-19T09:03:39;25.90;;;23.40;;
35294;SDS011;21413;48.032;7.764;2022-08-19T09:16:39;24.93;;;22.47;;
35294;SDS011;21413;48.032;7.764;2022-08-19T09:19:06;24.40;;;22.10;;
35294;SDS011;21413;48.032;7.764;2022-08-19T09:21:33;28.80;;;24.70;;
35294;SDS011;21413;48.032;7.764;2022-08-19T09:24:00;24.43;;;22.00;;
35294;SDS011;21413;48.032;7.764;2022-08-19T09:26:26;24.80;;;22.30;;
35294;SDS011;21413;48.032;7.764;2022-08-19T09:28:52;27.83;;;24.80;;
35294;SDS011;21413;48.032;7.764;2022-08-19T09:31:22;25.97;;;23.30;;
35294;SDS011;21413;48.032;7.764;2022-08-19T09:33:48;26.60;;;23.90;;
35294;SDS011;21413;48.032;7.764;2022-08-19T09:36:16;28.13;;;24.17;;
35294;SDS011;21413;48.032;7.764;2022-08-19T09:38:43;26.27;;;23.50;;
35294;SDS011;21413;48.032;7.764;2022-08-19T09:41:11;25.63;;;23.13;;
35294;SDS011;21413;48.032;7.764;2022-08-19T09:43:39;25.07;;;22.47;;
35294;SDS011;21413;48.032;7.764;2022-08-19T09:46:05;25.97;;;23.40;;
35294;SDS011;21413;48.032;7.764;2022-08-19T09:48:33;23.47;;;21.17;;
35294;SDS011;21413;48.032;7.764;2022-08-19T09:51:06;24.00;;;21.60;;
35294;SDS011;21413;48.032;7.764;2022-08-19T09:53:36;25.37;;;22.80;;
35294;SDS011;21413;48.032;7.764;2022-08-19T09:56:03;26.40;;;22.43;;
35294;SDS011;21413;48.032;7.764;2022-08-19T09:58:29;28.20;;;24.80;;
35294;SDS011;21413;48.032;7.764;2022-08-19T10:00:56;27.50;;;24.03;;
35294;SDS011;21413;48.032;7.764;2022-08-19T10:03:23;27.70;;;24.97;;
35294;SDS011;21413;48.032;7.764;2022-08-19T10:05:49;26.30;;;23.80;;
35294;SDS011;21413;48.032;7.764;2022-08-19T10:08:16;26.07;;;23.30;;
35294;SDS011;21413;48.032;7.764;2022-08-19T10:10:43;27.07;;;24.37;;
35294;SDS011;21413;48.032;7.764;2022-08-19T10:13:09;27.20;;;23.03;;
35294;SDS011;21413;48.032;7.764;2022-08-19T10:15:35;29.87;;;23.70;;
35294;SDS011;21413;48.032;7.764;2022-08-19T10:18:04;27.50;;;23.17;;
35294;SDS011;21413;48.032;7.764;2022-08-19T10:20:30;25.73;;;23.07;;
35294;SDS011;21413;48.032;7.764;2022-08-19T10:22:56;26.23;;;23.40;;
35294;SDS011;21413;48.032;7.764;2022-08-19T10:25:24;26.90;;;24.07;;
35294;SDS011;21413;48.032;7.764;2022-08-19T10:27:51;24.10;;;21.73;;
35294;SDS011;21413;48.032;7.764;2022-08-19T10:30:17;25.97;;;23.57;;
35294;SDS011;21413;48.032;7.764;2022-08-19T10:32:44;24.70;;;22.43;;
35294;SDS011;21413;48.032;7.764;2022-08-19T10:35:11;26.20;;;23.30;;
35294;SDS011;21413;48.032;7.764;2022-08-19T10:37:37;26.50;;;23.27;;
35294;SDS011;21413;48.032;7.764;2022-08-19T10:40:04;26.13;;;23.20;;
35294;SDS011;21413;48.032;7.764;2022-08-19T10:42:32;26.87;;;24.10;;
35294;SDS011;21413;48.032;7.764;2022-08-19T10:44:58;25.33;;;22.83;;
35294;SDS011;21413;48.032;7.764;2022-08-19T10:47:24;25.67;;;22.80;;
35294;SDS011;21413;48.032;7.764;2022-08-19T10:49:50;25.90;;;23.53;;
35294;SDS011;21413;48.032;7.764;2022-08-19T10:52:35;25.73;;;23.13;;
35294;SDS011;21413;48.032;7.764;2022-08-19T10:55:02;26.40;;;23.83;;
35294;SDS011;21413;48.032;7.764;2022-08-19T10:57:47;30.50;;;23.47;;
35294;SDS011;21413;48.032;7.764;2022-08-19T11:00:13;25.03;;;22.63;;
35294;SDS011;21413;48.032;7.764;2022-08-19T11:02:39;26.53;;;23.60;;
35294;SDS011;21413;48.032;7.764;2022-08-19T11:05:06;28.97;;;24.90;;
35294;SDS011;21413;48.032;7.764;2022-08-19T11:07:35;27.20;;;24.47;;
35294;SDS011;21413;48.032;7.764;2022-08-19T11:10:02;25.77;;;21.90;;
35294;SDS011;21413;48.032;7.764;2022-08-19T11:12:29;26.73;;;23.93;;
35294;SDS011;21413;48.032;7.764;2022-08-19T11:14:55;25.03;;;22.20;;
35294;SDS011;21413;48.032;7.764;2022-08-19T11:17:21;26.87;;;23.97;;
35294;SDS011;21413;48.032;7.764;2022-08-19T11:19:48;28.43;;;24.07;;
35294;SDS011;21413;48.032;7.764;2022-08-19T11:22:15;28.27;;;23.83;;
35294;SDS011;21413;48.032;7.764;2022-08-19T11:24:42;25.50;;;22.90;;
35294;SDS011;21413;48.032;7.764;2022-08-19T11:27:08;24.83;;;22.33;;
35294;SDS011;21413;48.032;7.764;2022-08-19T11:29:35;26.80;;;23.80;;
35294;SDS011;21413;48.032;7.764;2022-08-19T11:32:07;28.40;;;24.63;;
35294;SDS011;21413;48.032;7.764;2022-08-19T11:34:34;26.20;;;23.87;;
35294;SDS011;21413;48.032;7.764;2022-08-19T11:37:00;26.23;;;23.50;;
35294;SDS011;21413;48.032;7.764;2022-08-19T11:39:28;25.57;;;22.97;;
35294;SDS011;21413;48.032;7.764;2022-08-19T11:41:55;23.17;;;20.97;;
35294;SDS011;21413;48.032;7.764;2022-08-19T11:44:21;26.73;;;23.40;;
35294;SDS011;21413;48.032;7.764;2022-08-19T11:46:47;25.53;;;22.93;;
35294;SDS011;21413;48.032;7.764;2022-08-19T11:49:14;25.27;;;22.83;;
35294;SDS011;21413;48.032;7.764;2022-08-19T11:51:40;25.43;;;22.70;;
35294;SDS011;21413;48.032;7.764;2022-08-19T11:54:10;26.30;;;22.70;;
35294;SDS011;21413;48.032;7.764;2022-08-19T11:56:36;23.63;;;21.33;;
35294;SDS011;21413;48.032;7.764;2022-08-19T11:59:03;24.77;;;22.20;;
35294;SDS011;21413;48.032;7.764;2022-08-19T12:01:29;38.40;;;23.70;;
35294;SDS011;21413;48.032;7.764;2022-08-19T12:03:56;28.50;;;23.27;;
35294;SDS011;21413;48.032;7.764;2022-08-19T12:06:26;25.87;;;23.37;;
35294;SDS011;21413;48.032;7.764;2022-08-19T12:08:57;25.17;;;22.50;;
35294;SDS011;21413;48.032;7.764;2022-08-19T12:11:23;23.93;;;21.73;;
35294;SDS011;21413;48.032;7.764;2022-08-19T12:13:49;24.63;;;22.10;;
35294;SDS011;21413;48.032;7.764;2022-08-19T12:16:20;24.93;;;22.53;;
35294;SDS011;21413;48.032;7.764;2022-08-19T12:18:47;25.00;;;21.87;;
35294;SDS011;21413;48.032;7.764;2022-08-19T12:21:16;23.63;;;21.10;;
35294;SDS011;21413;48.032;7.764;2022-08-19T12:23:42;22.20;;;19.90;;
35294;SDS011;21413;48.032;7.764;2022-08-19T12:26:10;20.43;;;18.60;;
35294;SDS011;21413;48.032;7.764;2022-08-19T12:28:36;22.33;;;20.13;;
35294;SDS011;21413;48.032;7.764;2022-08-19T12:31:02;20.43;;;18.30;;
35294;SDS011;21413;48.032;7.764;2022-08-19T12:33:28;23.17;;;20.87;;
35294;SDS011;21413;48.032;7.764;2022-08-19T12:35:59;22.13;;;20.00;;
35294;SDS011;21413;48.032;7.764;2022-08-19T12:38:26;20.73;;;18.77;;
35294;SDS011;21413;48.032;7.764;2022-08-19T12:40:52;21.60;;;19.40;;
35294;SDS011;21413;48.032;7.764;2022-08-19T12:43:18;21.17;;;19.00;;
35294;SDS011;21413;48.032;7.764;2022-08-19T12:45:45;21.87;;;19.90;;
35294;SDS011;21413;48.032;7.764;2022-08-19T12:48:11;22.40;;;20.20;;
35294;SDS011;21413;48.032;7.764;2022-08-19T12:50:41;19.23;;;17.43;;
35294;SDS011;21413;48.032;7.764;2022-08-19T12:53:07;20.83;;;19.00;;
35294;SDS011;21413;48.032;7.764;2022-08-19T12:55:33;18.87;;;17.13;;
35294;SDS011;21413;48.032;7.764;2022-08-19T12:57:59;17.80;;;16.00;;
35294;SDS011;21413;48.032;7.764;2022-08-19T13:00:28;16.17;;;14.80;;
35294;SDS011;21413;48.032;7.764;2022-08-19T13:02:57;17.70;;;14.47;;
35294;SDS011;21413;48.032;7.764;2022-08-19T13:05:24;16.57;;;15.30;;
35294;SDS011;21413;48.032;7.764;2022-08-19T13:07:50;14.17;;;13.10;;
35294;SDS011;21413;48.032;7.764;2022-08-19T13:10:18;14.60;;;13.07;;
35294;SDS011;21413;48.032;7.764;2022-08-19T13:12:45;13.70;;;12.70;;
35294;SDS011;21413;48.032;7.764;2022-08-19T13:15:12;13.17;;;12.17;;
35294;SDS011;21413;48.032;7.764;2022-08-19T13:17:38;15.60;;;14.37;;
35294;SDS011;21413;48.032;7.764;2022-08-19T13:20:05;14.10;;;13.10;;
35294;SDS011;21413;48.032;7.764;2022-08-19T13:22:33;14.63;;;13.63;;
35294;SDS011;21413;48.032;7.764;2022-08-19T13:25:00;14.30;;;12.90;;
35294;SDS011;21413;48.032;7.764;2022-08-19T13:27:26;13.87;;;12.87;;
35294;SDS011;21413;48.032;7.764;2022-08-19T13:29:52;14.57;;;13.17;;
35294;SDS011;21413;48.032;7.764;2022-08-19T13:32:37;12.97;;;11.90;;
35294;SDS011;21413;48.032;7.764;2022-08-19T13:35:21;12.30;;;11.20;;
35294;SDS011;21413;48.032;7.764;2022-08-19T13:37:47;18.27;;;12.27;;
35294;SDS011;21413;48.032;7.764;2022-08-19T13:40:22;12.03;;;10.83;;
35294;SDS011;21413;48.032;7.764;2022-08-19T13:42:50;10.10;;;9.60;;
35294;SDS011;21413;48.032;7.764;2022-08-19T13:45:17;12.33;;;11.03;;
35294;SDS011;21413;48.032;7.764;2022-08-19T13:47:47;13.23;;;12.13;;
35294;SDS011;21413;48.032;7.764;2022-08-19T13:50:15;12.13;;;11.23;;
35294;SDS011;21413;48.032;7.764;2022-08-19T13:52:42;13.73;;;12.77;;
35294;SDS011;21413;48.032;7.764;2022-08-19T13:55:09;14.23;;;13.00;;
35294;SDS011;21413;48.032;7.764;2022-08-19T13:57:35;12.07;;;11.30;;
35294;SDS011;21413;48.032;7.764;2022-08-19T14:00:04;13.00;;;11.83;;
35294;SDS011;21413;48.032;7.764;2022-08-19T14:02:30;11.90;;;11.20;;
35294;SDS011;21413;48.032;7.764;2022-08-19T14:04:57;11.40;;;10.70;;
35294;SDS011;21413;48.032;7.764;2022-08-19T14:07:23;13.33;;;12.17;;
35294;SDS011;21413;48.032;7.764;2022-08-19T14:09:50;12.50;;;11.53;;
35294;SDS011;21413;48.032;7.764;2022-08-19T14:12:19;12.30;;;11.10;;
35294;SDS011;21413;48.032;7.764;2022-08-19T14:14:46;14.17;;;11.53;;
35294;SDS011;21413;48.032;7.764;2022-08-19T14:17:12;12.17;;;11.17;;
35294;SDS011;21413;48.032;7.764;2022-08-19T14:19:38;12.37;;;11.37;;
35294;SDS011;21413;48.032;7.764;2022-08-19T14:22:04;13.27;;;12.17;;
35294;SDS011;21413;48.032;7.764;2022-08-19T14:24:30;18.60;;;14.60;;
35294;SDS011;21413;48.032;7.764;2022-08-19T14:26:59;18.30;;;16.80;;
35294;SDS011;21413;48.032;7.764;2022-08-19T14:29:25;20.53;;;18.20;;
35294;SDS011;21413;48.032;7.764;2022-08-19T14:31:54;66.07;;;58.03;;
35294;SDS011;21413;48.032;7.764;2022-08-19T14:34:23;23.17;;;20.70;;
35294;SDS011;21413;48.032;7.764;2022-08-19T14:36:50;24.30;;;22.00;;
35294;SDS011;21413;48.032;7.764;2022-08-19T14:39:15;23.13;;;21.00;;